sensor_id;sensor_type;location;lat;lon;timestamp;P1;durP1;ratioP1;P2;durP2;ratioP2
31680;SDS011;18281;51.364;9.566;2023-07-02T00:00:53;2.50;;;1.65;;
31680;SDS011;18281;51.364;9.566;2023-07-02T00:03:20;2.05;;;1.85;;
31680;SDS011;18281;51.364;9.566;2023-07-02T00:05:47;3.08;;;1.70;;
31680;SDS011;18281;51.364;9.566;2023-07-02T00:08:15;3.13;;;1.58;;
31680;SDS011;18281;51.364;9.566;2023-07-02T00:10:40;5.28;;;1.70;;
31680;SDS011;18281;51.364;9.566;2023-07-02T00:13:06;2.83;;;1.85;;
31680;SDS011;18281;51.364;9.566;2023-07-02T00:15:31;2.25;;;1.90;;
31680;SDS011;18281;51.364;9.566;2023-07-02T00:17:56;3.28;;;1.83;;
31680;SDS011;18281;51.364;9.566;2023-07-02T00:20:22;4.70;;;1.90;;
31680;SDS011;18281;51.364;9.566;2023-07-02T00:22:48;2.45;;;1.80;;
31680;SDS011;18281;51.364;9.566;2023-07-02T00:25:13;2.90;;;1.58;;
31680;SDS011;18281;51.364;9.566;2023-07-02T00:27:39;2.33;;;1.95;;
31680;SDS011;18281;51.364;9.566;2023-07-02T00:30:05;4.78;;;1.88;;
31680;SDS011;18281;51.364;9.566;2023-07-02T00:32:31;3.42;;;1.63;;
31680;SDS011;18281;51.364;9.566;2023-07-02T00:34:56;3.10;;;1.70;;
31680;SDS011;18281;51.364;9.566;2023-07-02T00:37:22;2.50;;;1.63;;
31680;SDS011;18281;51.364;9.566;2023-07-02T00:39:47;3.78;;;1.80;;
31680;SDS011;18281;51.364;9.566;2023-07-02T00:42:13;2.97;;;1.63;;
31680;SDS011;18281;51.364;9.566;2023-07-02T00:44:39;4.72;;;1.77;;
31680;SDS011;18281;51.364;9.566;2023-07-02T00:47:09;2.63;;;1.80;;
31680;SDS011;18281;51.364;9.566;2023-07-02T00:49:35;3.72;;;2.03;;
31680;SDS011;18281;51.364;9.566;2023-07-02T00:52:01;3.95;;;1.98;;
31680;SDS011;18281;51.364;9.566;2023-07-02T00:54:29;2.47;;;2.28;;
31680;SDS011;18281;51.364;9.566;2023-07-02T00:56:56;3.28;;;1.65;;
31680;SDS011;18281;51.364;9.566;2023-07-02T00:59:22;3.70;;;1.80;;
31680;SDS011;18281;51.364;9.566;2023-07-02T01:01:47;4.28;;;2.13;;
31680;SDS011;18281;51.364;9.566;2023-07-02T01:04:18;1.98;;;1.70;;
31680;SDS011;18281;51.364;9.566;2023-07-02T01:06:44;3.63;;;1.60;;
31680;SDS011;18281;51.364;9.566;2023-07-02T01:09:10;3.13;;;2.20;;
31680;SDS011;18281;51.364;9.566;2023-07-02T01:14:02;3.53;;;2.28;;
31680;SDS011;18281;51.364;9.566;2023-07-02T01:16:31;2.25;;;2.05;;
31680;SDS011;18281;51.364;9.566;2023-07-02T01:18:58;4.10;;;1.90;;
31680;SDS011;18281;51.364;9.566;2023-07-02T01:21:29;3.72;;;2.10;;
31680;SDS011;18281;51.364;9.566;2023-07-02T01:23:55;3.80;;;2.10;;
31680;SDS011;18281;51.364;9.566;2023-07-02T01:26:21;3.53;;;2.20;;
31680;SDS011;18281;51.364;9.566;2023-07-02T01:28:46;5.50;;;2.13;;
31680;SDS011;18281;51.364;9.566;2023-07-02T01:31:11;4.07;;;2.40;;
31680;SDS011;18281;51.364;9.566;2023-07-02T01:33:37;1.90;;;1.70;;
31680;SDS011;18281;51.364;9.566;2023-07-02T01:36:02;5.85;;;2.15;;
31680;SDS011;18281;51.364;9.566;2023-07-02T01:38:28;5.15;;;2.55;;
31680;SDS011;18281;51.364;9.566;2023-07-02T01:40:53;3.35;;;2.40;;
31680;SDS011;18281;51.364;9.566;2023-07-02T01:43:18;2.63;;;2.42;;
31680;SDS011;18281;51.364;9.566;2023-07-02T01:45:44;3.15;;;2.20;;
31680;SDS011;18281;51.364;9.566;2023-07-02T01:48:10;3.60;;;2.22;;
31680;SDS011;18281;51.364;9.566;2023-07-02T01:50:35;3.33;;;2.20;;
31680;SDS011;18281;51.364;9.566;2023-07-02T01:53:01;3.38;;;2.13;;
31680;SDS011;18281;51.364;9.566;2023-07-02T01:55:26;6.45;;;2.60;;
31680;SDS011;18281;51.364;9.566;2023-07-02T01:57:51;3.70;;;2.22;;
31680;SDS011;18281;51.364;9.566;2023-07-02T02:00:17;2.58;;;2.13;;
31680;SDS011;18281;51.364;9.566;2023-07-02T02:02:42;5.00;;;2.50;;
31680;SDS011;18281;51.364;9.566;2023-07-02T02:05:08;4.78;;;2.10;;
31680;SDS011;18281;51.364;9.566;2023-07-02T02:07:34;5.43;;;1.92;;
31680;SDS011;18281;51.364;9.566;2023-07-02T02:10:03;2.80;;;2.03;;
31680;SDS011;18281;51.364;9.566;2023-07-02T02:12:29;4.20;;;2.25;;
31680;SDS011;18281;51.364;9.566;2023-07-02T02:14:55;8.25;;;3.00;;
31680;SDS011;18281;51.364;9.566;2023-07-02T02:17:20;3.80;;;2.42;;
31680;SDS011;18281;51.364;9.566;2023-07-02T02:19:46;7.50;;;2.20;;
31680;SDS011;18281;51.364;9.566;2023-07-02T02:22:11;6.10;;;2.45;;
31680;SDS011;18281;51.364;9.566;2023-07-02T02:24:36;5.10;;;2.20;;
31680;SDS011;18281;51.364;9.566;2023-07-02T02:27:02;5.00;;;2.30;;
31680;SDS011;18281;51.364;9.566;2023-07-02T02:29:27;5.10;;;2.50;;
31680;SDS011;18281;51.364;9.566;2023-07-02T02:31:52;9.75;;;2.80;;
31680;SDS011;18281;51.364;9.566;2023-07-02T02:34:18;3.13;;;2.83;;
31680;SDS011;18281;51.364;9.566;2023-07-02T02:36:43;6.00;;;2.65;;
31680;SDS011;18281;51.364;9.566;2023-07-02T02:39:08;5.18;;;2.60;;
31680;SDS011;18281;51.364;9.566;2023-07-02T02:41:34;5.35;;;2.70;;
31680;SDS011;18281;51.364;9.566;2023-07-02T02:43:59;5.13;;;2.78;;
31680;SDS011;18281;51.364;9.566;2023-07-02T02:46:24;8.48;;;2.83;;
31680;SDS011;18281;51.364;9.566;2023-07-02T02:48:50;5.95;;;2.90;;
31680;SDS011;18281;51.364;9.566;2023-07-02T02:51:16;6.57;;;2.70;;
31680;SDS011;18281;51.364;9.566;2023-07-02T02:53:42;6.18;;;2.60;;
31680;SDS011;18281;51.364;9.566;2023-07-02T02:56:07;4.95;;;2.50;;
31680;SDS011;18281;51.364;9.566;2023-07-02T02:58:32;8.98;;;2.95;;
31680;SDS011;18281;51.364;9.566;2023-07-02T03:00:58;7.57;;;2.80;;
31680;SDS011;18281;51.364;9.566;2023-07-02T03:03:23;6.28;;;3.53;;
31680;SDS011;18281;51.364;9.566;2023-07-02T03:05:49;3.92;;;2.38;;
31680;SDS011;18281;51.364;9.566;2023-07-02T03:08:15;2.83;;;2.60;;
31680;SDS011;18281;51.364;9.566;2023-07-02T03:10:41;3.13;;;2.90;;
31680;SDS011;18281;51.364;9.566;2023-07-02T03:13:06;5.00;;;2.70;;
31680;SDS011;18281;51.364;9.566;2023-07-02T03:15:32;9.10;;;3.03;;
31680;SDS011;18281;51.364;9.566;2023-07-02T03:17:57;5.40;;;2.72;;
31680;SDS011;18281;51.364;9.566;2023-07-02T03:20:23;10.90;;;3.10;;
31680;SDS011;18281;51.364;9.566;2023-07-02T03:22:48;5.45;;;2.92;;
31680;SDS011;18281;51.364;9.566;2023-07-02T03:25:14;10.07;;;3.03;;
31680;SDS011;18281;51.364;9.566;2023-07-02T03:27:39;6.25;;;2.47;;
31680;SDS011;18281;51.364;9.566;2023-07-02T03:30:05;3.47;;;2.72;;
31680;SDS011;18281;51.364;9.566;2023-07-02T03:32:31;7.63;;;2.70;;
31680;SDS011;18281;51.364;9.566;2023-07-02T03:34:56;6.53;;;2.80;;
31680;SDS011;18281;51.364;9.566;2023-07-02T03:37:21;7.05;;;2.78;;
31680;SDS011;18281;51.364;9.566;2023-07-02T03:39:47;5.10;;;2.85;;
31680;SDS011;18281;51.364;9.566;2023-07-02T03:42:12;4.05;;;2.53;;
31680;SDS011;18281;51.364;9.566;2023-07-02T03:44:37;3.70;;;2.80;;
31680;SDS011;18281;51.364;9.566;2023-07-02T03:47:03;14.15;;;2.90;;
31680;SDS011;18281;51.364;9.566;2023-07-02T03:49:28;10.90;;;2.60;;
31680;SDS011;18281;51.364;9.566;2023-07-02T03:51:54;4.93;;;2.60;;
31680;SDS011;18281;51.364;9.566;2023-07-02T03:54:19;5.88;;;2.28;;
31680;SDS011;18281;51.364;9.566;2023-07-02T03:56:44;5.80;;;2.00;;
31680;SDS011;18281;51.364;9.566;2023-07-02T03:59:10;4.18;;;2.13;;
31680;SDS011;18281;51.364;9.566;2023-07-02T04:01:35;3.40;;;1.98;;
31680;SDS011;18281;51.364;9.566;2023-07-02T04:04:00;4.40;;;2.00;;
31680;SDS011;18281;51.364;9.566;2023-07-02T04:06:26;6.90;;;2.08;;
31680;SDS011;18281;51.364;9.566;2023-07-02T04:08:51;4.60;;;1.92;;
31680;SDS011;18281;51.364;9.566;2023-07-02T04:11:17;4.00;;;1.90;;
31680;SDS011;18281;51.364;9.566;2023-07-02T04:13:42;2.53;;;2.08;;
31680;SDS011;18281;51.364;9.566;2023-07-02T04:16:08;2.47;;;2.22;;
31680;SDS011;18281;51.364;9.566;2023-07-02T04:18:33;4.03;;;1.92;;
31680;SDS011;18281;51.364;9.566;2023-07-02T04:20:59;2.50;;;1.77;;
31680;SDS011;18281;51.364;9.566;2023-07-02T04:23:25;4.18;;;2.10;;
31680;SDS011;18281;51.364;9.566;2023-07-02T04:25:50;3.88;;;1.92;;
31680;SDS011;18281;51.364;9.566;2023-07-02T04:28:16;2.03;;;1.70;;
31680;SDS011;18281;51.364;9.566;2023-07-02T04:30:42;4.47;;;2.10;;
31680;SDS011;18281;51.364;9.566;2023-07-02T04:33:08;3.50;;;1.98;;
31680;SDS011;18281;51.364;9.566;2023-07-02T04:35:33;4.72;;;2.20;;
31680;SDS011;18281;51.364;9.566;2023-07-02T04:37:59;3.95;;;2.38;;
31680;SDS011;18281;51.364;9.566;2023-07-02T04:40:25;2.60;;;1.90;;
31680;SDS011;18281;51.364;9.566;2023-07-02T04:42:51;3.50;;;1.90;;
31680;SDS011;18281;51.364;9.566;2023-07-02T04:45:22;2.65;;;2.05;;
31680;SDS011;18281;51.364;9.566;2023-07-02T04:47:49;2.65;;;2.22;;
31680;SDS011;18281;51.364;9.566;2023-07-02T04:50:16;3.97;;;2.20;;
31680;SDS011;18281;51.364;9.566;2023-07-02T04:52:42;3.13;;;1.90;;
31680;SDS011;18281;51.364;9.566;2023-07-02T04:55:07;3.13;;;1.90;;
31680;SDS011;18281;51.364;9.566;2023-07-02T04:57:33;4.30;;;1.95;;
31680;SDS011;18281;51.364;9.566;2023-07-02T04:59:58;2.40;;;1.88;;
31680;SDS011;18281;51.364;9.566;2023-07-02T05:02:24;6.03;;;2.88;;
31680;SDS011;18281;51.364;9.566;2023-07-02T05:04:49;3.95;;;2.30;;
31680;SDS011;18281;51.364;9.566;2023-07-02T05:07:15;6.18;;;2.20;;
31680;SDS011;18281;51.364;9.566;2023-07-02T05:09:41;2.90;;;2.00;;
31680;SDS011;18281;51.364;9.566;2023-07-02T05:12:07;3.35;;;2.05;;
31680;SDS011;18281;51.364;9.566;2023-07-02T05:14:32;2.10;;;1.95;;
31680;SDS011;18281;51.364;9.566;2023-07-02T05:16:58;3.75;;;2.35;;
31680;SDS011;18281;51.364;9.566;2023-07-02T05:19:23;2.05;;;1.95;;
31680;SDS011;18281;51.364;9.566;2023-07-02T05:21:48;2.85;;;2.00;;
31680;SDS011;18281;51.364;9.566;2023-07-02T05:24:14;3.03;;;2.33;;
31680;SDS011;18281;51.364;9.566;2023-07-02T05:26:39;2.85;;;2.40;;
31680;SDS011;18281;51.364;9.566;2023-07-02T05:29:04;4.55;;;2.20;;
31680;SDS011;18281;51.364;9.566;2023-07-02T05:31:30;3.33;;;2.58;;
31680;SDS011;18281;51.364;9.566;2023-07-02T05:33:55;3.35;;;2.33;;
31680;SDS011;18281;51.364;9.566;2023-07-02T05:36:21;3.97;;;2.65;;
31680;SDS011;18281;51.364;9.566;2023-07-02T05:38:47;3.25;;;2.42;;
31680;SDS011;18281;51.364;9.566;2023-07-02T05:41:19;5.00;;;2.70;;
31680;SDS011;18281;51.364;9.566;2023-07-02T05:43:47;3.53;;;2.55;;
31680;SDS011;18281;51.364;9.566;2023-07-02T05:46:13;3.17;;;2.97;;
31680;SDS011;18281;51.364;9.566;2023-07-02T05:48:39;3.88;;;2.60;;
31680;SDS011;18281;51.364;9.566;2023-07-02T05:51:05;3.72;;;3.00;;
31680;SDS011;18281;51.364;9.566;2023-07-02T05:53:30;3.30;;;2.90;;
31680;SDS011;18281;51.364;9.566;2023-07-02T05:55:56;4.65;;;2.60;;
31680;SDS011;18281;51.364;9.566;2023-07-02T05:58:21;4.25;;;2.40;;
31680;SDS011;18281;51.364;9.566;2023-07-02T06:00:46;2.05;;;1.92;;
31680;SDS011;18281;51.364;9.566;2023-07-02T06:03:14;3.67;;;2.80;;
31680;SDS011;18281;51.364;9.566;2023-07-02T06:05:45;3.47;;;2.72;;
31680;SDS011;18281;51.364;9.566;2023-07-02T06:08:17;2.88;;;2.58;;
31680;SDS011;18281;51.364;9.566;2023-07-02T06:10:45;4.57;;;3.08;;
31680;SDS011;18281;51.364;9.566;2023-07-02T06:13:11;5.18;;;3.10;;
31680;SDS011;18281;51.364;9.566;2023-07-02T06:15:37;4.70;;;3.45;;
31680;SDS011;18281;51.364;9.566;2023-07-02T06:18:02;5.15;;;3.78;;
31680;SDS011;18281;51.364;9.566;2023-07-02T06:20:28;4.93;;;3.00;;
31680;SDS011;18281;51.364;9.566;2023-07-02T06:22:53;8.35;;;3.50;;
31680;SDS011;18281;51.364;9.566;2023-07-02T06:25:19;6.15;;;4.00;;
31680;SDS011;18281;51.364;9.566;2023-07-02T06:27:44;6.93;;;4.30;;
31680;SDS011;18281;51.364;9.566;2023-07-02T06:30:09;7.80;;;4.00;;
31680;SDS011;18281;51.364;9.566;2023-07-02T06:32:35;6.47;;;4.35;;
31680;SDS011;18281;51.364;9.566;2023-07-02T06:35:00;7.40;;;4.80;;
31680;SDS011;18281;51.364;9.566;2023-07-02T06:37:26;8.90;;;5.10;;
31680;SDS011;18281;51.364;9.566;2023-07-02T06:39:51;6.22;;;5.13;;
31680;SDS011;18281;51.364;9.566;2023-07-02T06:42:16;10.68;;;4.88;;
31680;SDS011;18281;51.364;9.566;2023-07-02T06:44:42;8.65;;;4.75;;
31680;SDS011;18281;51.364;9.566;2023-07-02T06:47:07;7.38;;;4.38;;
31680;SDS011;18281;51.364;9.566;2023-07-02T06:49:33;10.40;;;5.47;;
31680;SDS011;18281;51.364;9.566;2023-07-02T06:51:58;8.18;;;5.65;;
31680;SDS011;18281;51.364;9.566;2023-07-02T06:54:25;8.38;;;5.10;;
31680;SDS011;18281;51.364;9.566;2023-07-02T06:56:51;9.75;;;4.70;;
31680;SDS011;18281;51.364;9.566;2023-07-02T06:59:20;7.72;;;4.90;;
31680;SDS011;18281;51.364;9.566;2023-07-02T07:01:46;9.15;;;5.32;;
31680;SDS011;18281;51.364;9.566;2023-07-02T07:04:11;7.30;;;5.22;;
31680;SDS011;18281;51.364;9.566;2023-07-02T07:06:37;8.82;;;5.32;;
31680;SDS011;18281;51.364;9.566;2023-07-02T07:09:03;8.90;;;5.72;;
31680;SDS011;18281;51.364;9.566;2023-07-02T07:11:28;8.73;;;5.50;;
31680;SDS011;18281;51.364;9.566;2023-07-02T07:13:54;12.68;;;6.20;;
31680;SDS011;18281;51.364;9.566;2023-07-02T07:16:19;8.85;;;5.65;;
31680;SDS011;18281;51.364;9.566;2023-07-02T07:18:45;8.15;;;5.78;;
31680;SDS011;18281;51.364;9.566;2023-07-02T07:21:10;9.98;;;6.55;;
31680;SDS011;18281;51.364;9.566;2023-07-02T07:23:35;8.40;;;6.32;;
31680;SDS011;18281;51.364;9.566;2023-07-02T07:26:01;10.93;;;6.45;;
31680;SDS011;18281;51.364;9.566;2023-07-02T07:28:26;11.35;;;6.30;;
31680;SDS011;18281;51.364;9.566;2023-07-02T07:30:51;13.18;;;6.03;;
31680;SDS011;18281;51.364;9.566;2023-07-02T07:33:17;10.20;;;6.13;;
31680;SDS011;18281;51.364;9.566;2023-07-02T07:35:42;16.08;;;7.43;;
31680;SDS011;18281;51.364;9.566;2023-07-02T07:38:07;16.83;;;6.22;;
31680;SDS011;18281;51.364;9.566;2023-07-02T07:40:33;13.77;;;6.95;;
31680;SDS011;18281;51.364;9.566;2023-07-02T07:42:58;10.13;;;6.45;;
31680;SDS011;18281;51.364;9.566;2023-07-02T07:45:23;14.32;;;6.63;;
31680;SDS011;18281;51.364;9.566;2023-07-02T07:47:49;11.32;;;6.45;;
31680;SDS011;18281;51.364;9.566;2023-07-02T07:50:14;12.25;;;6.53;;
31680;SDS011;18281;51.364;9.566;2023-07-02T07:52:40;15.70;;;6.82;;
31680;SDS011;18281;51.364;9.566;2023-07-02T07:55:08;12.55;;;6.85;;
31680;SDS011;18281;51.364;9.566;2023-07-02T07:57:34;20.73;;;7.13;;
31680;SDS011;18281;51.364;9.566;2023-07-02T08:00:01;24.75;;;7.25;;
31680;SDS011;18281;51.364;9.566;2023-07-02T08:02:29;14.60;;;6.53;;
31680;SDS011;18281;51.364;9.566;2023-07-02T08:04:54;15.73;;;6.65;;
31680;SDS011;18281;51.364;9.566;2023-07-02T08:07:20;13.55;;;6.80;;
31680;SDS011;18281;51.364;9.566;2023-07-02T08:09:45;14.70;;;7.30;;
31680;SDS011;18281;51.364;9.566;2023-07-02T08:12:10;12.95;;;6.60;;
31680;SDS011;18281;51.364;9.566;2023-07-02T08:14:36;13.77;;;6.60;;
31680;SDS011;18281;51.364;9.566;2023-07-02T08:17:01;15.35;;;7.57;;
31680;SDS011;18281;51.364;9.566;2023-07-02T08:19:26;12.55;;;6.65;;
31680;SDS011;18281;51.364;9.566;2023-07-02T08:21:52;16.90;;;6.97;;
31680;SDS011;18281;51.364;9.566;2023-07-02T08:24:17;12.93;;;6.70;;
31680;SDS011;18281;51.364;9.566;2023-07-02T08:26:42;14.15;;;7.18;;
31680;SDS011;18281;51.364;9.566;2023-07-02T08:29:09;14.40;;;7.20;;
31680;SDS011;18281;51.364;9.566;2023-07-02T08:31:35;15.18;;;7.60;;
31680;SDS011;18281;51.364;9.566;2023-07-02T08:34:00;14.35;;;7.22;;
31680;SDS011;18281;51.364;9.566;2023-07-02T08:36:25;15.38;;;7.82;;
31680;SDS011;18281;51.364;9.566;2023-07-02T08:38:51;14.82;;;7.60;;
31680;SDS011;18281;51.364;9.566;2023-07-02T08:41:16;13.70;;;7.85;;
31680;SDS011;18281;51.364;9.566;2023-07-02T08:43:41;15.35;;;7.50;;
31680;SDS011;18281;51.364;9.566;2023-07-02T08:46:08;17.13;;;7.65;;
31680;SDS011;18281;51.364;9.566;2023-07-02T08:48:35;17.83;;;7.90;;
31680;SDS011;18281;51.364;9.566;2023-07-02T08:51:00;20.17;;;8.48;;
31680;SDS011;18281;51.364;9.566;2023-07-02T08:53:28;13.77;;;7.15;;
31680;SDS011;18281;51.364;9.566;2023-07-02T08:55:58;15.23;;;8.10;;
31680;SDS011;18281;51.364;9.566;2023-07-02T08:58:25;17.02;;;7.78;;
31680;SDS011;18281;51.364;9.566;2023-07-02T09:01:09;16.55;;;7.57;;
31680;SDS011;18281;51.364;9.566;2023-07-02T09:03:37;18.17;;;7.72;;
31680;SDS011;18281;51.364;9.566;2023-07-02T09:06:07;17.42;;;8.25;;
31680;SDS011;18281;51.364;9.566;2023-07-02T09:08:34;15.43;;;8.20;;
31680;SDS011;18281;51.364;9.566;2023-07-02T09:11:09;15.27;;;8.23;;
31680;SDS011;18281;51.364;9.566;2023-07-02T09:13:42;15.82;;;8.20;;
31680;SDS011;18281;51.364;9.566;2023-07-02T09:16:20;12.88;;;7.78;;
31680;SDS011;18281;51.364;9.566;2023-07-02T09:18:59;15.02;;;7.53;;
31680;SDS011;18281;51.364;9.566;2023-07-02T09:21:43;16.15;;;7.70;;
31680;SDS011;18281;51.364;9.566;2023-07-02T09:24:20;17.88;;;7.55;;
31680;SDS011;18281;51.364;9.566;2023-07-02T09:27:06;15.45;;;7.80;;
31680;SDS011;18281;51.364;9.566;2023-07-02T09:29:32;14.73;;;7.72;;
31680;SDS011;18281;51.364;9.566;2023-07-02T09:31:59;18.67;;;7.82;;
31680;SDS011;18281;51.364;9.566;2023-07-02T09:34:26;13.40;;;7.60;;
31680;SDS011;18281;51.364;9.566;2023-07-02T09:36:53;12.90;;;7.07;;
31680;SDS011;18281;51.364;9.566;2023-07-02T09:39:20;19.55;;;8.15;;
31680;SDS011;18281;51.364;9.566;2023-07-02T09:41:51;14.15;;;7.80;;
31680;SDS011;18281;51.364;9.566;2023-07-02T09:44:17;16.60;;;7.32;;
31680;SDS011;18281;51.364;9.566;2023-07-02T09:46:55;13.18;;;7.40;;
31680;SDS011;18281;51.364;9.566;2023-07-02T09:49:23;21.15;;;7.90;;
31680;SDS011;18281;51.364;9.566;2023-07-02T09:51:49;11.73;;;6.80;;
31680;SDS011;18281;51.364;9.566;2023-07-02T09:54:16;12.85;;;7.07;;
31680;SDS011;18281;51.364;9.566;2023-07-02T09:56:41;15.45;;;7.07;;
31680;SDS011;18281;51.364;9.566;2023-07-02T09:59:10;15.50;;;8.00;;
31680;SDS011;18281;51.364;9.566;2023-07-02T10:01:36;13.82;;;7.43;;
31680;SDS011;18281;51.364;9.566;2023-07-02T10:04:12;15.20;;;8.02;;
31680;SDS011;18281;51.364;9.566;2023-07-02T10:06:53;13.38;;;7.32;;
31680;SDS011;18281;51.364;9.566;2023-07-02T10:09:20;15.07;;;7.43;;
31680;SDS011;18281;51.364;9.566;2023-07-02T10:11:46;16.20;;;6.85;;
31680;SDS011;18281;51.364;9.566;2023-07-02T10:14:12;20.13;;;7.78;;
31680;SDS011;18281;51.364;9.566;2023-07-02T10:19:19;13.90;;;7.15;;
31680;SDS011;18281;51.364;9.566;2023-07-02T10:21:45;13.30;;;6.88;;
31680;SDS011;18281;51.364;9.566;2023-07-02T10:26:37;13.75;;;6.72;;
31680;SDS011;18281;51.364;9.566;2023-07-02T10:29:02;14.95;;;7.65;;
31680;SDS011;18281;51.364;9.566;2023-07-02T10:31:28;13.77;;;7.32;;
31680;SDS011;18281;51.364;9.566;2023-07-02T10:33:54;14.90;;;7.57;;
31680;SDS011;18281;51.364;9.566;2023-07-02T10:36:20;12.18;;;6.68;;
31680;SDS011;18281;51.364;9.566;2023-07-02T10:38:46;12.93;;;7.18;;
31680;SDS011;18281;51.364;9.566;2023-07-02T10:41:22;17.42;;;7.25;;
31680;SDS011;18281;51.364;9.566;2023-07-02T10:43:54;13.82;;;7.15;;
31680;SDS011;18281;51.364;9.566;2023-07-02T10:46:30;15.45;;;6.93;;
31680;SDS011;18281;51.364;9.566;2023-07-02T10:48:56;15.30;;;7.28;;
31680;SDS011;18281;51.364;9.566;2023-07-02T10:51:22;15.30;;;7.90;;
31680;SDS011;18281;51.364;9.566;2023-07-02T10:53:58;15.43;;;7.47;;
31680;SDS011;18281;51.364;9.566;2023-07-02T10:56:25;15.20;;;7.63;;
31680;SDS011;18281;51.364;9.566;2023-07-02T10:58:54;15.82;;;7.53;;
31680;SDS011;18281;51.364;9.566;2023-07-02T11:01:30;16.33;;;7.40;;
31680;SDS011;18281;51.364;9.566;2023-07-02T11:03:57;12.70;;;6.93;;
31680;SDS011;18281;51.364;9.566;2023-07-02T11:06:23;16.40;;;7.93;;
31680;SDS011;18281;51.364;9.566;2023-07-02T11:08:48;15.05;;;7.72;;
31680;SDS011;18281;51.364;9.566;2023-07-02T11:11:14;14.70;;;7.75;;
31680;SDS011;18281;51.364;9.566;2023-07-02T11:13:43;17.85;;;7.80;;
31680;SDS011;18281;51.364;9.566;2023-07-02T11:18:44;12.73;;;7.55;;
31680;SDS011;18281;51.364;9.566;2023-07-02T11:21:10;20.58;;;8.05;;
31680;SDS011;18281;51.364;9.566;2023-07-02T11:23:35;17.13;;;8.32;;
31680;SDS011;18281;51.364;9.566;2023-07-02T11:26:01;17.27;;;8.05;;
31680;SDS011;18281;51.364;9.566;2023-07-02T11:28:28;16.63;;;7.97;;
31680;SDS011;18281;51.364;9.566;2023-07-02T11:30:56;18.83;;;8.85;;
31680;SDS011;18281;51.364;9.566;2023-07-02T11:35:59;15.32;;;7.70;;
31680;SDS011;18281;51.364;9.566;2023-07-02T11:38:25;13.45;;;8.07;;
31680;SDS011;18281;51.364;9.566;2023-07-02T11:40:50;14.20;;;7.68;;
31680;SDS011;18281;51.364;9.566;2023-07-02T11:43:16;15.07;;;8.65;;
31680;SDS011;18281;51.364;9.566;2023-07-02T11:45:41;18.75;;;8.68;;
31680;SDS011;18281;51.364;9.566;2023-07-02T11:48:06;16.15;;;7.75;;
31680;SDS011;18281;51.364;9.566;2023-07-02T11:50:32;19.23;;;8.25;;
31680;SDS011;18281;51.364;9.566;2023-07-02T11:52:57;14.93;;;7.82;;
31680;SDS011;18281;51.364;9.566;2023-07-02T11:55:22;18.70;;;8.70;;
31680;SDS011;18281;51.364;9.566;2023-07-02T11:57:48;16.17;;;8.50;;
31680;SDS011;18281;51.364;9.566;2023-07-02T12:00:14;15.40;;;7.88;;
31680;SDS011;18281;51.364;9.566;2023-07-02T12:02:40;16.88;;;7.85;;
31680;SDS011;18281;51.364;9.566;2023-07-02T12:05:05;20.60;;;7.65;;
31680;SDS011;18281;51.364;9.566;2023-07-02T12:07:31;14.50;;;8.23;;
31680;SDS011;18281;51.364;9.566;2023-07-02T12:09:56;16.85;;;8.27;;
31680;SDS011;18281;51.364;9.566;2023-07-02T12:12:21;16.30;;;8.43;;
31680;SDS011;18281;51.364;9.566;2023-07-02T12:14:47;16.60;;;8.25;;
31680;SDS011;18281;51.364;9.566;2023-07-02T12:17:12;17.00;;;8.00;;
31680;SDS011;18281;51.364;9.566;2023-07-02T12:19:39;14.52;;;8.40;;
31680;SDS011;18281;51.364;9.566;2023-07-02T12:22:05;17.77;;;8.77;;
31680;SDS011;18281;51.364;9.566;2023-07-02T12:24:31;14.45;;;7.55;;
31680;SDS011;18281;51.364;9.566;2023-07-02T12:26:56;14.80;;;8.25;;
31680;SDS011;18281;51.364;9.566;2023-07-02T12:29:21;14.45;;;8.07;;
31680;SDS011;18281;51.364;9.566;2023-07-02T12:31:47;17.20;;;9.25;;
31680;SDS011;18281;51.364;9.566;2023-07-02T12:34:12;16.88;;;7.82;;
31680;SDS011;18281;51.364;9.566;2023-07-02T12:36:37;15.13;;;7.53;;
31680;SDS011;18281;51.364;9.566;2023-07-02T12:39:03;16.77;;;8.25;;
31680;SDS011;18281;51.364;9.566;2023-07-02T12:41:28;16.95;;;8.98;;
31680;SDS011;18281;51.364;9.566;2023-07-02T12:43:54;15.13;;;7.25;;
31680;SDS011;18281;51.364;9.566;2023-07-02T12:46:19;16.95;;;7.43;;
31680;SDS011;18281;51.364;9.566;2023-07-02T12:48:45;14.15;;;8.07;;
31680;SDS011;18281;51.364;9.566;2023-07-02T12:51:10;17.45;;;8.55;;
31680;SDS011;18281;51.364;9.566;2023-07-02T12:53:35;17.35;;;9.52;;
31680;SDS011;18281;51.364;9.566;2023-07-02T12:56:01;23.08;;;14.02;;
31680;SDS011;18281;51.364;9.566;2023-07-02T12:58:27;21.35;;;12.60;;
31680;SDS011;18281;51.364;9.566;2023-07-02T13:00:52;18.77;;;11.43;;
31680;SDS011;18281;51.364;9.566;2023-07-02T13:03:17;18.67;;;10.00;;
31680;SDS011;18281;51.364;9.566;2023-07-02T13:05:43;17.05;;;9.68;;
31680;SDS011;18281;51.364;9.566;2023-07-02T13:08:09;21.40;;;9.45;;
31680;SDS011;18281;51.364;9.566;2023-07-02T13:10:35;20.15;;;9.23;;
31680;SDS011;18281;51.364;9.566;2023-07-02T13:13:00;23.17;;;13.27;;
31680;SDS011;18281;51.364;9.566;2023-07-02T13:15:26;30.25;;;19.63;;
31680;SDS011;18281;51.364;9.566;2023-07-02T13:17:51;65.70;;;43.17;;
31680;SDS011;18281;51.364;9.566;2023-07-02T13:20:17;100.78;;;71.75;;
31680;SDS011;18281;51.364;9.566;2023-07-02T13:22:42;136.43;;;97.43;;
31680;SDS011;18281;51.364;9.566;2023-07-02T13:25:08;108.53;;;73.50;;
31680;SDS011;18281;51.364;9.566;2023-07-02T13:27:33;84.20;;;56.17;;
31680;SDS011;18281;51.364;9.566;2023-07-02T13:29:59;51.80;;;34.38;;
31680;SDS011;18281;51.364;9.566;2023-07-02T13:32:24;40.38;;;24.58;;
31680;SDS011;18281;51.364;9.566;2023-07-02T13:34:50;35.15;;;21.75;;
31680;SDS011;18281;51.364;9.566;2023-07-02T13:37:15;26.55;;;15.93;;
31680;SDS011;18281;51.364;9.566;2023-07-02T13:39:44;22.05;;;12.52;;
31680;SDS011;18281;51.364;9.566;2023-07-02T13:42:13;19.40;;;11.80;;
31680;SDS011;18281;51.364;9.566;2023-07-02T13:44:39;24.63;;;13.95;;
31680;SDS011;18281;51.364;9.566;2023-07-02T13:47:05;20.83;;;10.85;;
31680;SDS011;18281;51.364;9.566;2023-07-02T13:49:31;18.27;;;10.18;;
31680;SDS011;18281;51.364;9.566;2023-07-02T13:51:57;17.90;;;9.68;;
31680;SDS011;18281;51.364;9.566;2023-07-02T13:54:23;17.88;;;8.82;;
31680;SDS011;18281;51.364;9.566;2023-07-02T13:56:48;19.38;;;9.90;;
31680;SDS011;18281;51.364;9.566;2023-07-02T13:59:14;17.27;;;8.75;;
31680;SDS011;18281;51.364;9.566;2023-07-02T14:01:41;20.30;;;9.38;;
31680;SDS011;18281;51.364;9.566;2023-07-02T14:04:07;20.25;;;8.48;;
31680;SDS011;18281;51.364;9.566;2023-07-02T14:06:32;18.55;;;9.23;;
31680;SDS011;18281;51.364;9.566;2023-07-02T14:08:58;17.23;;;8.88;;
31680;SDS011;18281;51.364;9.566;2023-07-02T14:11:23;17.13;;;9.10;;
31680;SDS011;18281;51.364;9.566;2023-07-02T14:13:50;17.90;;;8.20;;
31680;SDS011;18281;51.364;9.566;2023-07-02T14:16:15;19.55;;;9.13;;
31680;SDS011;18281;51.364;9.566;2023-07-02T14:18:40;20.25;;;9.38;;
31680;SDS011;18281;51.364;9.566;2023-07-02T14:21:06;16.58;;;8.48;;
31680;SDS011;18281;51.364;9.566;2023-07-02T14:23:31;18.27;;;8.93;;
31680;SDS011;18281;51.364;9.566;2023-07-02T14:25:57;19.45;;;9.75;;
31680;SDS011;18281;51.364;9.566;2023-07-02T14:28:22;17.50;;;9.48;;
31680;SDS011;18281;51.364;9.566;2023-07-02T14:30:55;19.13;;;8.50;;
31680;SDS011;18281;51.364;9.566;2023-07-02T14:33:21;16.23;;;8.93;;
31680;SDS011;18281;51.364;9.566;2023-07-02T14:35:47;16.63;;;9.50;;
31680;SDS011;18281;51.364;9.566;2023-07-02T14:38:12;18.17;;;8.85;;
31680;SDS011;18281;51.364;9.566;2023-07-02T14:40:37;17.00;;;8.68;;
31680;SDS011;18281;51.364;9.566;2023-07-02T14:43:02;15.52;;;8.70;;
31680;SDS011;18281;51.364;9.566;2023-07-02T14:45:29;15.38;;;9.32;;
31680;SDS011;18281;51.364;9.566;2023-07-02T14:47:54;16.77;;;8.35;;